Time;durP1;ratioP1;P1;durP2;ratioP2;P2;SDS_P1;SDS_P2;PMS_P1;PMS_P2;Temp;Humidity;BMP_temperature;BMP_pressure;BME280_temperature;BME280_humidity;BME280_pressure;Samples;Min_cycle;Max_cycle;Signal;HPM_P1;HPM_P2
2023/10/02 00:02:11;;;;;;;11.27;6.13;;;9.80;99.90;;;;;;4432238;28;656616;-67
2023/10/02 00:04:58;;;;;;;18.60;6.10;;;9.80;99.90;;;;;;4434626;28;659032;-68
2023/10/02 00:07:45;;;;;;;14.98;6.47;;;9.90;99.90;;;;;;4448677;27;657592;-67
2023/10/02 00:10:33;;;;;;;16.60;7.30;;;9.90;99.90;;;;;;4432507;28;656408;-68
2023/10/02 00:13:21;;;;;;;17.70;7.03;;;9.90;99.90;;;;;;4444288;28;657841;-67
2023/10/02 00:16:08;;;;;;;13.90;6.73;;;10.00;99.90;;;;;;4417008;28;656908;-67
2023/10/02 00:19:18;;;;;;;21.53;7.17;;;10.00;99.90;;;;;;4444785;28;658354;-67
2023/10/02 00:22:06;;;;;;;20.93;8.90;;;10.00;99.90;;;;;;4421202;28;658292;-67
2023/10/02 00:24:53;;;;;;;25.27;8.30;;;10.00;99.90;;;;;;4421799;28;657641;-67
2023/10/02 00:27:41;;;;;;;15.33;7.67;;;10.10;99.90;;;;;;4446348;28;658296;-67
2023/10/02 00:30:35;;;;;;;20.37;7.03;;;10.10;99.90;;;;;;4426261;28;657493;-67
2023/10/02 00:33:27;;;;;;;19.70;7.87;;;10.10;99.90;;;;;;4415381;28;658303;-67
2023/10/02 00:36:16;;;;;;;22.73;8.50;;;10.20;99.90;;;;;;4426399;28;658852;-67
2023/10/02 00:42:15;;;;;;;23.17;8.27;;;10.30;99.90;;;;;;4429253;28;658433;-67
2023/10/02 00:45:03;;;;;;;19.77;8.30;;;10.30;99.90;;;;;;4412575;28;658991;-68
2023/10/02 00:47:50;;;;;;;20.73;7.30;;;10.40;99.90;;;;;;4449692;28;659949;-67
2023/10/02 00:50:48;;;;;;;18.90;6.63;;;10.40;99.90;;;;;;4435416;28;657755;-68
2023/10/02 00:53:45;;;;;;;18.83;7.13;;;10.40;99.90;;;;;;4431867;28;658799;-67
2023/10/02 00:56:34;;;;;;;18.97;7.37;;;10.30;99.90;;;;;;4411094;28;658458;-69
2023/10/02 00:59:23;;;;;;;16.90;7.43;;;10.30;99.90;;;;;;4455973;28;657946;-68
2023/10/02 01:02:11;;;;;;;17.20;6.83;;;10.30;99.90;;;;;;4420768;28;658213;-67
2023/10/02 01:04:58;;;;;;;14.17;6.93;;;10.30;99.90;;;;;;4438262;28;658250;-67
2023/10/02 01:07:46;;;;;;;13.67;6.97;;;10.40;99.90;;;;;;4454627;28;658343;-67
2023/10/02 01:10:36;;;;;;;15.83;7.00;;;10.40;99.90;;;;;;4431891;28;657649;-68
2023/10/02 01:13:27;;;;;;;17.27;7.47;;;10.50;99.90;;;;;;4409547;28;657321;-67
2023/10/02 01:16:17;;;;;;;16.40;7.77;;;10.50;99.90;;;;;;4434399;28;659165;-67
2023/10/02 01:19:06;;;;;;;17.80;6.67;;;10.50;99.90;;;;;;4414843;28;658885;-68
2023/10/02 01:21:55;;;;;;;14.23;7.37;;;10.50;99.90;;;;;;4435779;28;657429;-67
2023/10/02 01:24:44;;;;;;;12.63;7.10;;;10.50;99.90;;;;;;4449359;28;657997;-68
2023/10/02 01:27:40;;;;;;;17.63;7.47;;;10.60;99.90;;;;;;4452959;28;657577;-67
2023/10/02 01:30:28;;;;;;;15.37;6.57;;;10.60;99.90;;;;;;4412414;28;658220;-68
2023/10/02 01:33:17;;;;;;;18.97;7.67;;;10.60;99.90;;;;;;4456768;28;658379;-67
2023/10/02 01:36:07;;;;;;;18.20;6.87;;;10.60;99.90;;;;;;4424779;28;658040;-67
2023/10/02 01:38:59;;;;;;;17.03;7.63;;;10.70;99.90;;;;;;4433952;28;657930;-67
2023/10/02 01:41:52;;;;;;;21.33;8.27;;;10.70;99.90;;;;;;4432333;28;657268;-68
2023/10/02 01:44:54;;;;;;;17.70;8.57;;;10.70;99.90;;;;;;4407696;27;658604;-68
2023/10/02 01:47:42;;;;;;;18.67;8.00;;;10.70;99.90;;;;;;4431193;28;658389;-67
2023/10/02 01:50:29;;;;;;;16.43;8.17;;;10.70;99.90;;;;;;4427474;28;658086;-67
2023/10/02 01:53:30;;;;;;;18.98;8.43;;;10.70;99.90;;;;;;4454292;28;658261;-67
2023/10/02 01:56:17;;;;;;;15.63;7.73;;;10.70;99.90;;;;;;4432178;28;658354;-68
2023/10/02 01:59:09;;;;;;;16.27;7.17;;;10.70;99.90;;;;;;4423688;28;657931;-68
2023/10/02 02:01:57;;;;;;;16.67;7.43;;;10.70;99.90;;;;;;4411943;28;658172;-68
2023/10/02 02:04:44;;;;;;;16.63;7.00;;;10.70;99.90;;;;;;4426474;28;658069;-68
2023/10/02 02:07:32;;;;;;;25.93;7.63;;;10.60;99.90;;;;;;4448972;28;657308;-67
2023/10/02 02:10:22;;;;;;;18.23;7.53;;;10.50;99.90;;;;;;4420776;28;657886;-67
2023/10/02 02:13:09;;;;;;;20.37;7.90;;;10.50;99.90;;;;;;4434662;27;658665;-67
2023/10/02 02:16:07;;;;;;;17.63;6.97;;;10.60;99.90;;;;;;4452647;28;657598;-67
2023/10/02 02:18:54;;;;;;;23.03;7.27;;;10.50;99.90;;;;;;4413161;27;658215;-68
2023/10/02 02:21:43;;;;;;;20.27;7.63;;;10.50;99.90;;;;;;4452586;27;658369;-67
2023/10/02 02:24:34;;;;;;;14.83;6.90;;;10.50;99.90;;;;;;4430143;27;658318;-67
2023/10/02 02:27:21;;;;;;;12.98;7.00;;;10.50;99.90;;;;;;4426790;28;657785;-67
2023/10/02 02:30:10;;;;;;;15.13;6.93;;;10.50;99.90;;;;;;4431158;28;657630;-68
2023/10/02 02:33:00;;;;;;;19.67;6.57;;;10.50;99.90;;;;;;4432985;28;658657;-68
2023/10/02 02:35:48;;;;;;;21.60;7.47;;;10.40;99.90;;;;;;4441459;28;657914;-68
2023/10/02 02:38:35;;;;;;;15.03;6.40;;;10.40;99.90;;;;;;4456127;28;658026;-68
2023/10/02 02:41:23;;;;;;;20.27;6.73;;;10.40;99.90;;;;;;4431747;27;657889;-68
2023/10/02 02:44:29;;;;;;;17.60;6.70;;;10.40;99.90;;;;;;4447702;27;657769;-67
2023/10/02 02:47:17;;;;;;;17.70;6.30;;;10.30;99.90;;;;;;4433471;28;657929;-68
2023/10/02 02:50:07;;;;;;;14.80;6.53;;;10.40;99.90;;;;;;4433577;28;658817;-67
2023/10/02 02:53:16;;;;;;;15.73;6.70;;;10.40;99.90;;;;;;4431770;28;659437;-67
2023/10/02 02:56:14;;;;;;;18.33;7.10;;;10.40;99.90;;;;;;4438918;28;657348;-67
2023/10/02 02:59:02;;;;;;;15.43;6.83;;;10.50;99.90;;;;;;4434718;28;658668;-68
2023/10/02 03:01:49;;;;;;;13.00;6.50;;;10.50;99.90;;;;;;4425932;28;658886;-68
2023/10/02 03:04:37;;;;;;;18.50;6.80;;;10.50;99.90;;;;;;4447144;28;657849;-68
2023/10/02 03:07:30;;;;;;;16.33;7.03;;;10.60;99.90;;;;;;4426021;28;658004;-68
2023/10/02 03:10:17;;;;;;;11.13;5.93;;;10.60;99.90;;;;;;4414245;28;657750;-68
2023/10/02 03:13:08;;;;;;;14.90;7.73;;;10.60;99.90;;;;;;4452291;28;658599;-68
2023/10/02 03:16:00;;;;;;;21.47;8.13;;;10.70;99.90;;;;;;4413123;28;658569;-67
2023/10/02 03:18:54;;;;;;;21.87;7.90;;;10.70;99.90;;;;;;4417706;28;658240;-67
2023/10/02 03:21:42;;;;;;;14.18;7.38;;;10.70;99.90;;;;;;4425025;28;657955;-67
2023/10/02 03:24:30;;;;;;;20.40;6.63;;;10.80;99.90;;;;;;4426621;28;659023;-68
2023/10/02 03:27:19;;;;;;;18.23;7.50;;;10.80;99.90;;;;;;4430000;28;657695;-68
2023/10/02 03:30:09;;;;;;;15.20;6.80;;;10.80;99.90;;;;;;4440928;28;657678;-68
2023/10/02 03:32:56;;;;;;;14.53;6.63;;;10.90;99.90;;;;;;4416323;28;658771;-67
2023/10/02 03:35:56;;;;;;;12.27;5.87;;;10.80;99.90;;;;;;4428575;28;658701;-68
2023/10/02 03:38:43;;;;;;;16.57;6.70;;;10.80;99.90;;;;;;4413957;28;657901;-67
2023/10/02 03:41:48;;;;;;;11.67;6.30;;;10.90;99.90;;;;;;4459255;28;657970;-67
2023/10/02 03:44:37;;;;;;;16.17;6.17;;;11.00;99.90;;;;;;4424995;27;658050;-68
2023/10/02 03:47:24;;;;;;;17.47;6.70;;;11.00;99.90;;;;;;4425538;27;659182;-67
2023/10/02 03:50:14;;;;;;;18.83;6.07;;;11.00;99.90;;;;;;4458921;28;658135;-68
2023/10/02 03:53:12;;;;;;;13.20;6.20;;;11.00;99.90;;;;;;4409381;28;657218;-67
2023/10/02 03:56:36;;;;;;;15.60;6.13;;;11.10;99.90;;;;;;4403553;28;658331;-68
2023/10/02 03:59:09;;;;;;;10.93;5.77;;;11.20;99.90;;;;;;4402767;28;658100;-68
2023/10/02 04:01:57;;;;;;;13.57;5.43;;;11.20;99.90;;;;;;4445333;28;657421;-67
2023/10/02 04:04:44;;;;;;;13.33;6.33;;;11.20;99.90;;;;;;4426593;28;659684;-68
2023/10/02 04:07:32;;;;;;;14.43;6.50;;;11.30;99.90;;;;;;4459206;28;658347;-67
2023/10/02 04:10:19;;;;;;;11.47;5.90;;;11.30;99.90;;;;;;4414929;28;658327;-67
2023/10/02 04:13:08;;;;;;;16.20;6.17;;;11.30;99.90;;;;;;4445906;28;658243;-68
2023/10/02 04:16:28;;;;;;;11.43;5.55;;;11.40;99.90;;;;;;4418656;28;658926;-67
2023/10/02 04:19:16;;;;;;;13.87;5.80;;;11.40;99.90;;;;;;4411097;28;658663;-68
2023/10/02 04:22:06;;;;;;;10.90;5.83;;;11.40;99.90;;;;;;4434979;28;657425;-68
2023/10/02 04:24:58;;;;;;;11.33;5.90;;;11.40;99.90;;;;;;4426019;28;657926;-67
2023/10/02 04:30:46;;;;;;;10.57;5.87;;;11.40;99.90;;;;;;4425939;28;657771;-67
2023/10/02 04:33:38;;;;;;;11.83;5.87;;;11.50;99.90;;;;;;4438814;28;658257;-67
2023/10/02 04:36:34;;;;;;;14.43;6.20;;;11.50;99.90;;;;;;4433180;28;657709;-67
2023/10/02 04:42:29;;;;;;;14.97;5.70;;;11.50;99.90;;;;;;4420374;28;657485;-67
2023/10/02 04:45:20;;;;;;;14.67;6.03;;;11.60;99.90;;;;;;4425705;28;657288;-67
2023/10/02 04:48:09;;;;;;;9.30;5.53;;;11.60;99.90;;;;;;4413549;28;657623;-68
2023/10/02 04:51:03;;;;;;;10.20;5.40;;;11.70;99.90;;;;;;4450218;28;656524;-68
2023/10/02 04:53:51;;;;;;;15.57;6.07;;;11.70;99.90;;;;;;4423439;28;658141;-68
2023/10/02 04:56:46;;;;;;;16.23;6.40;;;11.70;99.90;;;;;;4432214;28;658553;-67
2023/10/02 04:59:51;;;;;;;12.80;6.03;;;11.70;99.90;;;;;;4407588;28;658710;-68
2023/10/02 05:02:39;;;;;;;11.50;6.27;;;11.70;99.90;;;;;;4415666;28;657301;-68
2023/10/02 05:05:30;;;;;;;13.23;5.67;;;11.70;99.90;;;;;;4455820;28;658405;-70
2023/10/02 05:08:21;;;;;;;20.10;5.70;;;11.70;99.90;;;;;;4416966;27;657896;-70
2023/10/02 05:11:08;;;;;;;12.53;5.40;;;11.70;99.90;;;;;;4441290;28;657917;-70
2023/10/02 05:14:00;;;;;;;20.20;6.17;;;11.80;99.90;;;;;;4458064;28;659659;-70
2023/10/02 05:16:46;;;;;;;13.73;5.87;;;11.70;99.90;;;;;;4436671;28;657612;-70
2023/10/02 05:19:56;;;;;;;10.53;5.70;;;11.80;99.90;;;;;;4455424;28;657494;-70
2023/10/02 05:22:45;;;;;;;12.37;6.07;;;11.90;99.90;;;;;;4424553;28;657779;-71
2023/10/02 05:25:37;;;;;;;13.90;6.07;;;11.90;99.90;;;;;;4449589;28;657523;-70
2023/10/02 05:28:24;;;;;;;16.77;6.13;;;11.90;99.90;;;;;;4442654;27;657681;-71
2023/10/02 05:31:12;;;;;;;15.53;6.20;;;11.90;99.90;;;;;;4454276;27;658123;-70
2023/10/02 05:34:01;;;;;;;16.03;5.57;;;12.00;99.90;;;;;;4427369;28;658946;-69
2023/10/02 05:37:03;;;;;;;16.93;6.73;;;12.10;99.90;;;;;;4432307;28;657607;-69
2023/10/02 05:39:50;;;;;;;10.60;5.80;;;12.10;99.90;;;;;;4429428;28;658031;-69
2023/10/02 05:42:38;;;;;;;16.70;6.30;;;12.20;99.90;;;;;;4422476;28;657478;-69
2023/10/02 05:45:37;;;;;;;10.05;5.63;;;12.20;99.90;;;;;;4454028;28;658141;-69
2023/10/02 05:48:37;;;;;;;12.83;6.03;;;12.20;99.90;;;;;;4401590;28;658656;-69
2023/10/02 05:51:26;;;;;;;11.40;6.10;;;12.30;99.90;;;;;;4409395;28;657716;-69
2023/10/02 05:54:13;;;;;;;19.07;6.67;;;12.40;99.90;;;;;;4433304;28;658710;-69
2023/10/02 05:57:09;;;;;;;14.68;6.10;;;12.50;99.90;;;;;;4452817;28;658993;-69
2023/10/02 06:00:00;;;;;;;12.03;6.17;;;12.70;99.90;;;;;;4426333;28;657901;-69
2023/10/02 06:02:58;;;;;;;17.17;6.30;;;12.70;99.90;;;;;;4422310;27;657803;-69
2023/10/02 06:06:10;;;;;;;12.03;5.53;;;12.80;99.90;;;;;;4419872;28;658410;-69
2023/10/02 06:08:54;;;;;;;13.70;5.50;;;12.90;99.90;;;;;;4445922;28;657332;-69
2023/10/02 06:14:43;;;;;;;14.37;5.60;;;13.10;99.90;;;;;;4389638;28;657702;-69
2023/10/02 06:17:32;;;;;;;16.33;6.20;;;13.20;99.90;;;;;;4442960;28;658101;-68
2023/10/02 06:20:19;;;;;;;14.70;6.40;;;13.30;99.90;;;;;;4424149;28;657910;-68
2023/10/02 06:23:19;;;;;;;13.47;6.17;;;13.40;99.90;;;;;;4450285;28;657208;-68
2023/10/02 06:26:09;;;;;;;12.50;6.20;;;13.50;99.90;;;;;;4421885;28;658319;-68
2023/10/02 06:32:05;;;;;;;16.80;7.07;;;13.50;99.90;;;;;;4408111;28;658750;-68
2023/10/02 06:34:57;;;;;;;16.33;6.57;;;13.50;99.90;;;;;;4451586;28;657533;-69
2023/10/02 06:37:46;;;;;;;14.03;6.60;;;13.60;99.90;;;;;;4428755;28;657848;-68
2023/10/02 06:40:33;;;;;;;20.70;6.20;;;13.40;99.90;;;;;;4434711;28;658293;-68
2023/10/02 06:43:28;;;;;;;16.53;6.60;;;13.40;99.90;;;;;;4459665;27;658694;-68
2023/10/02 06:46:17;;;;;;;21.07;6.53;;;13.40;99.90;;;;;;4428239;28;658172;-67
2023/10/02 06:49:15;;;;;;;13.23;6.20;;;13.60;99.90;;;;;;4435308;28;658482;-68
2023/10/02 06:52:13;;;;;;;16.07;6.20;;;13.60;99.90;;;;;;4430768;28;657499;-68
2023/10/02 06:55:01;;;;;;;12.07;6.70;;;13.60;99.90;;;;;;4431556;28;657666;-68
2023/10/02 06:57:51;;;;;;;15.30;7.13;;;14.00;99.90;;;;;;4418017;28;657680;-68
2023/10/02 07:03:40;;;;;;;18.73;6.83;;;14.00;99.90;;;;;;4406611;27;657925;-67
2023/10/02 07:06:28;;;;;;;14.97;6.80;;;14.10;99.90;;;;;;4448188;28;657684;-67
2023/10/02 07:09:17;;;;;;;13.37;6.30;;;14.20;99.90;;;;;;4456141;27;659724;-68
2023/10/02 07:12:13;;;;;;;17.50;7.03;;;14.40;99.90;;;;;;4427973;28;658587;-67
2023/10/02 07:15:12;;;;;;;15.63;7.40;;;14.50;99.90;;;;;;4429166;28;658303;-68
2023/10/02 07:18:04;;;;;;;19.53;8.13;;;14.40;99.90;;;;;;4401925;28;658210;-67
2023/10/02 07:20:53;;;;;;;17.80;7.93;;;14.40;99.90;;;;;;4426876;28;657982;-68
2023/10/02 07:23:40;;;;;;;16.37;7.17;;;14.30;99.90;;;;;;4425939;28;658127;-68
2023/10/02 07:29:38;;;;;;;19.60;7.22;;;14.40;99.90;;;;;;4406012;28;657710;-68
2023/10/02 07:32:27;;;;;;;16.53;6.97;;;14.60;99.90;;;;;;4424246;28;658098;-67
2023/10/02 07:35:21;;;;;;;17.00;6.93;;;14.70;99.90;;;;;;4435630;28;657986;-68
2023/10/02 07:38:09;;;;;;;22.50;7.20;;;14.80;99.90;;;;;;4403155;28;658361;-68
2023/10/02 07:41:06;;;;;;;15.17;7.00;;;15.20;99.90;;;;;;4447412;28;657498;-68
2023/10/02 07:43:55;;;;;;;15.97;7.03;;;15.60;99.90;;;;;;4412107;28;659540;-68
2023/10/02 07:46:43;;;;;;;12.93;6.17;;;15.70;99.90;;;;;;4424993;28;657784;-68
2023/10/02 07:49:32;;;;;;;15.07;6.17;;;15.60;99.90;;;;;;4450807;27;658377;-68
2023/10/02 07:52:30;;;;;;;14.23;5.80;;;15.60;99.90;;;;;;4431772;28;658855;-68
2023/10/02 07:55:23;;;;;;;16.97;6.30;;;15.90;99.90;;;;;;4404040;28;658044;-69
2023/10/02 07:58:13;;;;;;;15.83;6.10;;;16.20;99.90;;;;;;4415188;28;659212;-68
2023/10/02 08:01:06;;;;;;;12.93;6.37;;;16.10;99.90;;;;;;4424484;28;659947;-69
2023/10/02 08:03:57;;;;;;;11.47;5.90;;;16.00;99.90;;;;;;4399817;28;657843;-68
2023/10/02 08:06:48;;;;;;;19.93;6.70;;;15.90;99.90;;;;;;4442459;28;657655;-68
2023/10/02 08:09:39;;;;;;;18.67;6.37;;;16.00;99.90;;;;;;4431636;28;659009;-68
2023/10/02 08:12:34;;;;;;;15.63;6.03;;;16.30;99.90;;;;;;4422057;28;658445;-68
2023/10/02 08:15:27;;;;;;;15.47;5.70;;;16.70;99.90;;;;;;4427570;28;658099;-68
2023/10/02 08:18:17;;;;;;;16.13;5.63;;;17.10;99.90;;;;;;4391539;28;658054;-68
2023/10/02 08:21:04;;;;;;;13.43;5.80;;;17.00;99.90;;;;;;4407307;28;658389;-68
2023/10/02 08:23:53;;;;;;;18.43;6.60;;;16.90;99.90;;;;;;4453785;28;658068;-67
2023/10/02 08:26:43;;;;;;;13.80;6.40;;;16.90;99.90;;;;;;4420279;28;658601;-68
2023/10/02 08:29:32;;;;;;;18.37;6.27;;;16.90;99.90;;;;;;4429147;28;657470;-68
2023/10/02 08:32:28;;;;;;;18.97;6.33;;;17.40;99.90;;;;;;4416199;28;658513;-68
2023/10/02 08:35:17;;;;;;;15.90;5.87;;;18.10;99.90;;;;;;4430464;28;659239;-68
2023/10/02 08:38:07;;;;;;;16.47;5.60;;;18.20;99.90;;;;;;4430502;28;657334;-68
2023/10/02 08:40:58;;;;;;;13.07;5.10;;;18.60;99.90;;;;;;4427818;28;658185;-68
2023/10/02 08:43:45;;;;;;;10.57;4.70;;;18.60;99.90;;;;;;4421004;28;659424;-68
2023/10/02 08:46:33;;;;;;;8.70;3.80;;;19.00;99.90;;;;;;4420736;28;657959;-68
2023/10/02 08:49:25;;;;;;;10.70;4.63;;;19.00;99.90;;;;;;4439011;28;658002;-68
2023/10/02 08:52:14;;;;;;;11.83;3.37;;;18.90;99.90;;;;;;4389824;28;657923;-68
2023/10/02 08:55:33;;;;;;;11.10;4.67;;;19.00;99.90;;;;;;4438510;28;657245;-67
2023/10/02 08:58:22;;;;;;;8.37;3.73;;;17.70;99.90;;;;;;4427573;28;658629;-66
2023/10/02 09:01:20;;;;;;;13.63;4.53;;;18.10;99.90;;;;;;4428226;28;658431;-68
2023/10/02 09:07:14;;;;;;;9.10;4.43;;;17.50;99.90;;;;;;4930320;27;131706;-66
2023/10/02 09:10:18;;;;;;;11.93;4.53;;;17.90;99.90;;;;;;4414044;28;651231;-67
2023/10/02 09:13:13;;;;;;;7.10;3.33;;;18.30;99.90;;;;;;4395513;28;651901;-67
2023/10/02 09:16:01;;;;;;;11.97;4.30;;;18.50;99.90;;;;;;4387687;28;651301;-67
2023/10/02 09:19:07;;;;;;;9.33;3.57;;;18.20;99.90;;;;;;4418729;28;651607;-67
2023/10/02 09:22:06;;;;;;;9.17;4.00;;;18.40;99.90;;;;;;4391793;28;650544;-66
2023/10/02 09:25:12;;;;;;;11.17;4.00;;;18.20;99.90;;;;;;4397047;28;651243;-66
2023/10/02 09:28:04;;;;;;;12.17;3.90;;;18.40;99.90;;;;;;4389107;28;652998;-66
2023/10/02 09:30:52;;;;;;;8.40;3.27;;;18.80;99.90;;;;;;4428839;28;653574;-67
2023/10/02 09:33:39;;;;;;;13.63;4.07;;;18.90;99.90;;;;;;4435022;28;651807;-66
2023/10/02 09:36:36;;;;;;;12.23;3.83;;;19.20;99.90;;;;;;4452300;28;653266;-66
2023/10/02 09:39:38;;;;;;;15.60;4.30;;;19.40;99.90;;;;;;4409160;28;653155;-66
2023/10/02 09:42:27;;;;;;;10.17;4.20;;;19.20;99.90;;;;;;4426941;28;653575;-67
2023/10/02 09:45:16;;;;;;;15.53;4.30;;;19.20;99.90;;;;;;4429929;28;654861;-67
2023/10/02 09:48:32;;;;;;;15.50;3.83;;;19.60;99.90;;;;;;4431066;28;655057;-66
2023/10/02 09:51:17;;;;;;;9.53;3.27;;;19.60;99.90;;;;;;4404748;28;654604;-67
2023/10/02 09:54:14;;;;;;;9.77;3.53;;;19.80;99.90;;;;;;4451529;27;653609;-67
2023/10/02 09:57:06;;;;;;;10.00;3.50;;;20.00;99.90;;;;;;4441308;27;652661;-67
2023/10/02 09:59:57;;;;;;;13.07;4.03;;;20.60;99.90;;;;;;4450731;27;653620;-66
2023/10/02 10:02:49;;;;;;;9.50;3.40;;;20.70;99.90;;;;;;4445724;27;653184;-67
2023/10/02 10:05:46;;;;;;;10.87;3.50;;;20.60;99.90;;;;;;4449548;27;654230;-67
2023/10/02 10:09:25;;;;;;;6.30;2.77;;;20.80;99.90;;;;;;4445861;27;653607;-66
2023/10/02 10:12:21;;;;;;;8.07;2.90;;;20.70;99.90;;;;;;4426828;27;652402;-66
2023/10/02 10:15:27;;;;;;;7.20;3.27;;;20.40;99.90;;;;;;4424201;27;653384;-66
2023/10/02 10:18:14;;;;;;;6.67;2.40;;;20.30;99.90;;;;;;4439046;28;652207;-66
2023/10/02 10:21:34;;;;;;;8.47;2.87;;;20.60;99.90;;;;;;4455376;27;652089;-66
2023/10/02 10:24:51;;;;;;;7.10;2.97;;;20.30;99.90;;;;;;4430460;28;653197;-66
2023/10/02 10:27:58;;;;;;;8.87;3.20;;;20.30;99.90;;;;;;4409196;28;653193;-66
2023/10/02 10:30:50;;;;;;;7.27;3.20;;;20.70;99.90;;;;;;4432314;27;652193;-66
2023/10/02 10:33:40;;;;;;;7.60;3.00;;;20.40;99.90;;;;;;4410685;27;652611;-66
2023/10/02 10:36:41;;;;;;;11.40;3.73;;;20.90;99.90;;;;;;4443661;28;653207;-66
2023/10/02 10:39:51;;;;;;;7.93;2.97;;;21.10;99.90;;;;;;4434958;28;653261;-66
2023/10/02 10:42:57;;;;;;;3.93;2.03;;;21.10;99.90;;;;;;4407261;28;652412;-66
2023/10/02 10:45:44;;;;;;;8.33;3.33;;;20.60;99.90;;;;;;4417334;28;652611;-66
2023/10/02 10:48:33;;;;;;;9.40;3.67;;;20.50;99.90;;;;;;4456082;28;652398;-66
2023/10/02 10:51:21;;;;;;;9.25;3.10;;;20.40;99.90;;;;;;4429790;28;653427;-67
2023/10/02 10:54:25;;;;;;;6.17;2.50;;;19.80;99.90;;;;;;4433613;28;652334;-66
2023/10/02 10:57:22;;;;;;;7.87;3.10;;;20.40;99.90;;;;;;4413389;27;652554;-66
2023/10/02 11:00:24;;;;;;;7.47;2.30;;;21.20;99.90;;;;;;4412221;27;652655;-67
2023/10/02 11:03:14;;;;;;;7.30;3.30;;;21.90;99.90;;;;;;4436549;28;652444;-66
2023/10/02 11:06:03;;;;;;;5.43;2.50;;;21.40;99.90;;;;;;4427064;28;652767;-66
2023/10/02 11:09:11;;;;;;;7.73;2.67;;;21.50;99.90;;;;;;4431259;28;653015;-66
2023/10/02 11:11:58;;;;;;;14.33;3.03;;;21.40;99.90;;;;;;4435173;28;652546;-67
2023/10/02 11:14:46;;;;;;;6.70;2.87;;;21.90;99.90;;;;;;4451214;28;654547;-66
2023/10/02 11:17:33;;;;;;;6.23;2.67;;;21.60;99.90;;;;;;4433830;28;653033;-67
2023/10/02 11:20:31;;;;;;;6.47;3.00;;;22.50;99.90;;;;;;4454463;28;654145;-67
2023/10/02 11:23:37;;;;;;;5.63;2.70;;;22.70;99.90;;;;;;4438142;28;653867;-66
2023/10/02 11:26:24;;;;;;;8.03;2.97;;;22.10;99.90;;;;;;4415147;28;653773;-66
2023/10/02 11:29:20;;;;;;;5.27;1.80;;;20.30;99.90;;;;;;4449498;28;652099;-66
2023/10/02 11:32:21;;;;;;;6.33;2.53;;;21.60;99.90;;;;;;4412274;28;652524;-67
2023/10/02 11:35:08;;;;;;;5.50;2.43;;;21.70;99.90;;;;;;4419021;28;652369;-66
2023/10/02 11:37:56;;;;;;;7.80;2.47;;;21.70;99.90;;;;;;4455701;28;652683;-65
2023/10/02 11:40:44;;;;;;;7.50;2.87;;;21.20;99.90;;;;;;4432879;28;653138;-66
2023/10/02 11:43:34;;;;;;;7.97;2.63;;;20.40;99.90;;;;;;4448561;28;652413;-66
2023/10/02 11:46:21;;;;;;;7.07;2.63;;;21.20;99.90;;;;;;4426225;28;652861;-66
2023/10/02 11:49:10;;;;;;;7.60;2.97;;;21.50;99.90;;;;;;4431737;28;652968;-66
2023/10/02 11:52:00;;;;;;;6.10;2.73;;;21.10;99.90;;;;;;4442046;28;652089;-66
2023/10/02 11:54:47;;;;;;;6.80;2.60;;;22.20;99.90;;;;;;4447671;28;654306;-66
2023/10/02 11:57:37;;;;;;;5.50;2.30;;;21.90;99.90;;;;;;4454608;28;654662;-65
2023/10/02 12:00:24;;;;;;;5.43;2.53;;;21.50;99.90;;;;;;4428931;28;653888;-66
2023/10/02 12:03:14;;;;;;;6.93;2.60;;;21.20;99.90;;;;;;4456092;28;654028;-66
2023/10/02 12:06:01;;;;;;;4.90;2.20;;;21.30;99.90;;;;;;4428953;28;654038;-66
2023/10/02 12:08:50;;;;;;;6.17;2.53;;;22.20;99.90;;;;;;4435288;27;653205;-66
2023/10/02 12:11:37;;;;;;;4.03;2.20;;;22.10;99.90;;;;;;4451278;28;653921;-66
2023/10/02 12:14:26;;;;;;;4.70;1.90;;;22.50;99.90;;;;;;4456082;28;654972;-66
2023/10/02 12:17:14;;;;;;;4.73;2.60;;;22.50;99.90;;;;;;4427149;28;654131;-66
2023/10/02 12:20:01;;;;;;;5.32;2.30;;;22.80;99.90;;;;;;4445807;27;653436;-66
2023/10/02 12:22:48;;;;;;;7.00;2.67;;;22.70;99.90;;;;;;4428985;28;653483;-66
2023/10/02 12:25:36;;;;;;;6.35;2.72;;;22.60;99.90;;;;;;4455353;28;653679;-66
2023/10/02 12:28:23;;;;;;;4.90;2.47;;;23.10;99.90;;;;;;4435547;28;653490;-66
2023/10/02 12:31:13;;;;;;;4.30;2.20;;;22.70;99.90;;;;;;4453951;28;654514;-66
2023/10/02 12:34:01;;;;;;;5.10;2.40;;;22.80;99.90;;;;;;4425318;28;653945;-66
2023/10/02 12:36:48;;;;;;;8.20;3.00;;;22.20;99.90;;;;;;4431527;28;653625;-66
2023/10/02 12:39:36;;;;;;;4.80;2.30;;;22.10;99.90;;;;;;4448729;28;653789;-65
2023/10/02 12:42:23;;;;;;;5.33;2.70;;;22.20;99.90;;;;;;4431428;28;653294;-66
2023/10/02 12:45:11;;;;;;;6.03;2.70;;;22.40;99.90;;;;;;4448684;28;654471;-66
2023/10/02 12:47:59;;;;;;;6.20;2.37;;;23.20;99.90;;;;;;4431090;28;653843;-66
2023/10/02 12:50:47;;;;;;;6.73;3.00;;;22.70;99.90;;;;;;4452174;28;653075;-66
2023/10/02 12:53:36;;;;;;;7.00;2.67;;;23.20;99.90;;;;;;4432225;28;653639;-66
2023/10/02 12:56:24;;;;;;;6.93;3.05;;;23.00;99.90;;;;;;4432057;28;653546;-66
2023/10/02 12:59:11;;;;;;;4.38;2.90;;;23.00;99.90;;;;;;4454895;28;654627;-66
2023/10/02 13:01:59;;;;;;;8.77;3.00;;;23.30;99.90;;;;;;4435254;28;654185;-65
2023/10/02 13:04:48;;;;;;;8.63;3.47;;;23.40;99.90;;;;;;4454427;28;653732;-66
2023/10/02 13:07:35;;;;;;;8.20;2.97;;;23.10;99.90;;;;;;4427736;28;654669;-65
2023/10/02 13:10:24;;;;;;;7.80;2.93;;;23.60;99.90;;;;;;4431522;28;653347;-65
2023/10/02 13:13:12;;;;;;;7.13;2.83;;;24.20;99.90;;;;;;4450336;28;653269;-66
2023/10/02 13:15:59;;;;;;;6.88;2.85;;;24.70;92.80;;;;;;4429053;28;653805;-65
2023/10/02 13:18:50;;;;;;;8.73;3.25;;;24.00;99.90;;;;;;4451317;28;653619;-65
2023/10/02 13:21:40;;;;;;;10.27;3.37;;;23.70;99.90;;;;;;4427933;28;654667;-65
2023/10/02 13:24:28;;;;;;;5.95;2.70;;;23.70;99.90;;;;;;4421572;28;654884;-65
2023/10/02 13:27:17;;;;;;;7.72;2.88;;;24.00;99.90;;;;;;4446942;28;654218;-66
2023/10/02 13:30:06;;;;;;;4.15;2.30;;;24.40;99.20;;;;;;4423482;28;654710;-65
2023/10/02 13:32:55;;;;;;;7.95;2.65;;;24.20;90.30;;;;;;4430418;28;653569;-66
2023/10/02 13:35:44;;;;;;;6.88;2.40;;;24.30;90.70;;;;;;4432138;28;653488;-66
2023/10/02 13:38:32;;;;;;;9.05;2.50;;;23.00;91.70;;;;;;4446558;28;654077;-66
2023/10/02 13:41:20;;;;;;;8.82;2.80;;;23.30;94.60;;;;;;4430840;28;654493;-66
2023/10/02 13:44:09;;;;;;;6.78;2.70;;;23.60;99.90;;;;;;4447515;28;654570;-66
2023/10/02 13:46:56;;;;;;;6.53;3.03;;;23.80;96.60;;;;;;4423641;28;654051;-65
2023/10/02 13:49:43;;;;;;;6.83;3.17;;;23.40;99.60;;;;;;4432025;28;653855;-65
2023/10/02 13:52:31;;;;;;;10.50;3.00;;;22.40;99.90;;;;;;4457765;28;654085;-65
2023/10/02 13:55:23;;;;;;;7.38;3.00;;;22.40;99.90;;;;;;4437716;28;656600;-66
2023/10/02 13:58:10;;;;;;;7.32;3.22;;;22.40;99.90;;;;;;4428969;27;655521;-65
2023/10/02 14:01:03;;;;;;;4.97;2.55;;;22.30;99.90;;;;;;4435077;28;655106;-65
2023/10/02 14:03:51;;;;;;;9.60;2.75;;;22.60;99.90;;;;;;4427100;27;656389;-65
2023/10/02 14:06:39;;;;;;;5.38;2.70;;;23.50;99.90;;;;;;4434085;28;654619;-66
2023/10/02 14:09:26;;;;;;;7.95;2.85;;;24.70;99.90;;;;;;4457362;28;655017;-66
2023/10/02 14:12:15;;;;;;;6.95;3.13;;;25.10;96.10;;;;;;4436459;28;654481;-66
2023/10/02 14:15:03;;;;;;;6.95;2.70;;;26.30;80.80;;;;;;4452817;28;654325;-66
2023/10/02 14:17:51;;;;;;;5.30;2.80;;;26.80;74.10;;;;;;4461380;28;654943;-66
2023/10/02 14:20:38;;;;;;;8.57;2.80;;;25.90;69.70;;;;;;4433336;28;654680;-66
2023/10/02 14:23:28;;;;;;;5.53;2.33;;;26.90;68.30;;;;;;4459861;28;655102;-65
2023/10/02 14:26:15;;;;;;;7.15;2.90;;;25.70;71.20;;;;;;4433575;27;655152;-65
2023/10/02 14:29:06;;;;;;;6.13;2.87;;;26.20;74.30;;;;;;4433242;28;654997;-65
2023/10/02 14:31:53;;;;;;;4.30;2.33;;;24.00;77.20;;;;;;4435301;28;654704;-65
2023/10/02 14:34:40;;;;;;;6.40;2.78;;;24.60;82.40;;;;;;4455858;27;654303;-65
2023/10/02 14:37:27;;;;;;;4.95;2.50;;;24.20;82.50;;;;;;4429638;27;654252;-65
2023/10/02 14:40:19;;;;;;;4.25;2.55;;;24.30;85.90;;;;;;4456148;28;655236;-65
2023/10/02 14:43:08;;;;;;;6.38;2.65;;;24.90;84.40;;;;;;4431085;27;654980;-65
2023/10/02 14:45:57;;;;;;;7.18;2.63;;;25.40;74.20;;;;;;4431729;28;656151;-65
2023/10/02 14:48:45;;;;;;;5.57;2.50;;;25.60;77.40;;;;;;4432159;27;655951;-65
2023/10/02 14:51:32;;;;;;;5.40;2.60;;;26.60;70.40;;;;;;4452084;28;655050;-65
2023/10/02 14:54:19;;;;;;;4.85;2.45;;;26.50;67.00;;;;;;4433178;28;655754;-65
2023/10/02 14:57:08;;;;;;;6.65;2.40;;;26.40;67.00;;;;;;4452209;28;654440;-65
2023/10/02 14:59:57;;;;;;;6.35;2.67;;;26.00;69.80;;;;;;4430556;28;655987;-66